sensor_id;sensor_type;location;lat;lon;timestamp;P1;durP1;ratioP1;P2;durP2;ratioP2
17570;SDS011;8903;52.220;20.978;2023-09-30T00:01:44;14.07;;;12.30;;
17570;SDS011;8903;52.220;20.978;2023-09-30T00:04:12;22.20;;;13.10;;
17570;SDS011;8903;52.220;20.978;2023-09-30T00:06:40;18.30;;;12.70;;
17570;SDS011;8903;52.220;20.978;2023-09-30T00:09:07;17.13;;;12.60;;
17570;SDS011;8903;52.220;20.978;2023-09-30T00:11:34;15.07;;;12.20;;
17570;SDS011;8903;52.220;20.978;2023-09-30T00:14:01;17.13;;;12.83;;
17570;SDS011;8903;52.220;20.978;2023-09-30T00:16:29;20.73;;;12.80;;
17570;SDS011;8903;52.220;20.978;2023-09-30T00:18:56;13.30;;;11.77;;
17570;SDS011;8903;52.220;20.978;2023-09-30T00:21:24;13.70;;;12.13;;
17570;SDS011;8903;52.220;20.978;2023-09-30T00:23:52;14.53;;;12.10;;
17570;SDS011;8903;52.220;20.978;2023-09-30T00:26:19;16.10;;;11.67;;
17570;SDS011;8903;52.220;20.978;2023-09-30T00:28:47;12.93;;;10.80;;
17570;SDS011;8903;52.220;20.978;2023-09-30T00:31:15;16.10;;;12.73;;
17570;SDS011;8903;52.220;20.978;2023-09-30T00:33:42;15.47;;;13.20;;
17570;SDS011;8903;52.220;20.978;2023-09-30T00:36:09;18.10;;;11.77;;
17570;SDS011;8903;52.220;20.978;2023-09-30T00:38:38;17.57;;;12.17;;
17570;SDS011;8903;52.220;20.978;2023-09-30T00:41:06;15.87;;;12.23;;
17570;SDS011;8903;52.220;20.978;2023-09-30T00:43:33;14.67;;;11.83;;
17570;SDS011;8903;52.220;20.978;2023-09-30T00:46:04;15.07;;;12.13;;
17570;SDS011;8903;52.220;20.978;2023-09-30T00:48:49;15.77;;;12.00;;
17570;SDS011;8903;52.220;20.978;2023-09-30T00:51:15;17.50;;;13.00;;
17570;SDS011;8903;52.220;20.978;2023-09-30T00:53:43;18.27;;;12.10;;
17570;SDS011;8903;52.220;20.978;2023-09-30T00:56:12;16.10;;;11.83;;
17570;SDS011;8903;52.220;20.978;2023-09-30T00:58:39;18.33;;;13.23;;
17570;SDS011;8903;52.220;20.978;2023-09-30T01:01:07;16.23;;;12.03;;
17570;SDS011;8903;52.220;20.978;2023-09-30T01:03:36;12.50;;;11.30;;
17570;SDS011;8903;52.220;20.978;2023-09-30T01:06:03;16.33;;;12.77;;
17570;SDS011;8903;52.220;20.978;2023-09-30T01:08:31;14.00;;;12.60;;
17570;SDS011;8903;52.220;20.978;2023-09-30T01:10:59;13.80;;;11.80;;
17570;SDS011;8903;52.220;20.978;2023-09-30T01:13:32;14.77;;;12.10;;
17570;SDS011;8903;52.220;20.978;2023-09-30T01:16:02;13.40;;;11.53;;
17570;SDS011;8903;52.220;20.978;2023-09-30T01:18:30;23.00;;;12.43;;
17570;SDS011;8903;52.220;20.978;2023-09-30T01:20:57;20.80;;;13.27;;
17570;SDS011;8903;52.220;20.978;2023-09-30T01:23:28;14.37;;;12.87;;
17570;SDS011;8903;52.220;20.978;2023-09-30T01:25:55;21.90;;;13.10;;
17570;SDS011;8903;52.220;20.978;2023-09-30T01:28:22;15.53;;;12.70;;
17570;SDS011;8903;52.220;20.978;2023-09-30T01:30:49;17.40;;;12.37;;
17570;SDS011;8903;52.220;20.978;2023-09-30T01:33:17;16.03;;;13.17;;
17570;SDS011;8903;52.220;20.978;2023-09-30T01:35:44;16.70;;;12.57;;
17570;SDS011;8903;52.220;20.978;2023-09-30T01:38:11;20.17;;;13.70;;
17570;SDS011;8903;52.220;20.978;2023-09-30T01:40:41;15.23;;;11.80;;
17570;SDS011;8903;52.220;20.978;2023-09-30T01:43:09;15.30;;;12.87;;
17570;SDS011;8903;52.220;20.978;2023-09-30T01:45:39;19.50;;;13.67;;
17570;SDS011;8903;52.220;20.978;2023-09-30T01:48:06;16.40;;;12.23;;
17570;SDS011;8903;52.220;20.978;2023-09-30T01:50:36;21.43;;;13.90;;
17570;SDS011;8903;52.220;20.978;2023-09-30T01:53:03;15.67;;;13.50;;
17570;SDS011;8903;52.220;20.978;2023-09-30T01:55:31;17.73;;;13.47;;
17570;SDS011;8903;52.220;20.978;2023-09-30T01:58:00;13.50;;;11.97;;
17570;SDS011;8903;52.220;20.978;2023-09-30T02:00:27;15.07;;;12.80;;
17570;SDS011;8903;52.220;20.978;2023-09-30T02:02:55;16.30;;;13.20;;
17570;SDS011;8903;52.220;20.978;2023-09-30T02:05:23;17.43;;;13.03;;
17570;SDS011;8903;52.220;20.978;2023-09-30T02:07:51;17.93;;;12.23;;
17570;SDS011;8903;52.220;20.978;2023-09-30T02:10:18;17.63;;;13.10;;
17570;SDS011;8903;52.220;20.978;2023-09-30T02:12:45;13.90;;;12.43;;
17570;SDS011;8903;52.220;20.978;2023-09-30T02:15:14;13.67;;;11.23;;
17570;SDS011;8903;52.220;20.978;2023-09-30T02:17:41;18.37;;;12.63;;
17570;SDS011;8903;52.220;20.978;2023-09-30T02:20:11;15.37;;;12.80;;
17570;SDS011;8903;52.220;20.978;2023-09-30T02:22:41;18.80;;;13.90;;
17570;SDS011;8903;52.220;20.978;2023-09-30T02:25:11;16.40;;;13.37;;
17570;SDS011;8903;52.220;20.978;2023-09-30T02:27:39;14.97;;;12.53;;
17570;SDS011;8903;52.220;20.978;2023-09-30T02:30:07;25.27;;;14.10;;
17570;SDS011;8903;52.220;20.978;2023-09-30T02:32:38;17.40;;;12.90;;
17570;SDS011;8903;52.220;20.978;2023-09-30T02:35:06;14.67;;;11.87;;
17570;SDS011;8903;52.220;20.978;2023-09-30T02:37:36;22.43;;;13.13;;
17570;SDS011;8903;52.220;20.978;2023-09-30T02:40:04;37.73;;;30.13;;
17570;SDS011;8903;52.220;20.978;2023-09-30T02:42:35;30.33;;;24.90;;
17570;SDS011;8903;52.220;20.978;2023-09-30T02:45:03;32.43;;;26.97;;
17570;SDS011;8903;52.220;20.978;2023-09-30T02:47:30;55.47;;;43.53;;
17570;SDS011;8903;52.220;20.978;2023-09-30T02:50:00;87.40;;;51.57;;
17570;SDS011;8903;52.220;20.978;2023-09-30T02:52:28;124.27;;;66.03;;
17570;SDS011;8903;52.220;20.978;2023-09-30T02:54:55;32.40;;;21.20;;
17570;SDS011;8903;52.220;20.978;2023-09-30T02:57:23;21.90;;;17.33;;
17570;SDS011;8903;52.220;20.978;2023-09-30T02:59:50;27.70;;;17.50;;
17570;SDS011;8903;52.220;20.978;2023-09-30T03:02:19;26.63;;;14.83;;
17570;SDS011;8903;52.220;20.978;2023-09-30T03:04:49;18.07;;;13.87;;
17570;SDS011;8903;52.220;20.978;2023-09-30T03:07:19;19.43;;;13.90;;
17570;SDS011;8903;52.220;20.978;2023-09-30T03:09:46;17.13;;;14.30;;
17570;SDS011;8903;52.220;20.978;2023-09-30T03:12:14;17.07;;;12.07;;
17570;SDS011;8903;52.220;20.978;2023-09-30T03:14:41;19.47;;;12.57;;
17570;SDS011;8903;52.220;20.978;2023-09-30T03:17:10;14.07;;;12.57;;
17570;SDS011;8903;52.220;20.978;2023-09-30T03:19:37;14.37;;;12.50;;
17570;SDS011;8903;52.220;20.978;2023-09-30T03:22:04;13.00;;;11.43;;
17570;SDS011;8903;52.220;20.978;2023-09-30T03:24:38;13.20;;;11.87;;
17570;SDS011;8903;52.220;20.978;2023-09-30T03:27:06;19.53;;;13.23;;
17570;SDS011;8903;52.220;20.978;2023-09-30T03:29:35;19.73;;;12.60;;
17570;SDS011;8903;52.220;20.978;2023-09-30T03:32:03;18.13;;;12.33;;
17570;SDS011;8903;52.220;20.978;2023-09-30T03:34:30;16.17;;;12.37;;
17570;SDS011;8903;52.220;20.978;2023-09-30T03:37:00;19.03;;;12.73;;
17570;SDS011;8903;52.220;20.978;2023-09-30T03:39:31;14.20;;;11.90;;
17570;SDS011;8903;52.220;20.978;2023-09-30T03:42:00;12.00;;;10.80;;
17570;SDS011;8903;52.220;20.978;2023-09-30T03:44:28;16.47;;;13.60;;
17570;SDS011;8903;52.220;20.978;2023-09-30T03:46:55;13.83;;;12.43;;
17570;SDS011;8903;52.220;20.978;2023-09-30T03:49:24;18.30;;;12.23;;
17570;SDS011;8903;52.220;20.978;2023-09-30T03:51:51;18.40;;;11.63;;
17570;SDS011;8903;52.220;20.978;2023-09-30T03:54:19;15.97;;;13.10;;
17570;SDS011;8903;52.220;20.978;2023-09-30T03:56:47;15.13;;;13.33;;
17570;SDS011;8903;52.220;20.978;2023-09-30T03:59:15;16.03;;;12.60;;
17570;SDS011;8903;52.220;20.978;2023-09-30T04:01:44;17.13;;;12.93;;
17570;SDS011;8903;52.220;20.978;2023-09-30T04:04:12;14.73;;;12.13;;
17570;SDS011;8903;52.220;20.978;2023-09-30T04:06:40;14.80;;;11.10;;
17570;SDS011;8903;52.220;20.978;2023-09-30T04:09:07;19.53;;;12.83;;
17570;SDS011;8903;52.220;20.978;2023-09-30T04:11:36;19.80;;;12.93;;
17570;SDS011;8903;52.220;20.978;2023-09-30T04:14:03;17.30;;;11.50;;
17570;SDS011;8903;52.220;20.978;2023-09-30T04:16:33;15.97;;;11.70;;
17570;SDS011;8903;52.220;20.978;2023-09-30T04:19:00;16.93;;;11.83;;
17570;SDS011;8903;52.220;20.978;2023-09-30T04:21:27;12.40;;;11.10;;
17570;SDS011;8903;52.220;20.978;2023-09-30T04:23:58;14.50;;;11.67;;
17570;SDS011;8903;52.220;20.978;2023-09-30T04:26:25;16.40;;;11.37;;
17570;SDS011;8903;52.220;20.978;2023-09-30T04:28:53;16.37;;;11.30;;
17570;SDS011;8903;52.220;20.978;2023-09-30T04:31:20;16.37;;;11.10;;
17570;SDS011;8903;52.220;20.978;2023-09-30T04:33:50;13.87;;;11.33;;
17570;SDS011;8903;52.220;20.978;2023-09-30T04:36:17;13.17;;;11.73;;
17570;SDS011;8903;52.220;20.978;2023-09-30T04:38:45;23.10;;;13.10;;
17570;SDS011;8903;52.220;20.978;2023-09-30T04:41:12;13.77;;;12.33;;
17570;SDS011;8903;52.220;20.978;2023-09-30T04:43:41;14.17;;;12.00;;
17570;SDS011;8903;52.220;20.978;2023-09-30T04:46:08;17.60;;;11.30;;
17570;SDS011;8903;52.220;20.978;2023-09-30T04:48:37;15.47;;;12.50;;
17570;SDS011;8903;52.220;20.978;2023-09-30T04:51:07;15.90;;;12.40;;
17570;SDS011;8903;52.220;20.978;2023-09-30T04:53:36;18.37;;;11.30;;
17570;SDS011;8903;52.220;20.978;2023-09-30T04:56:04;14.77;;;11.10;;
17570;SDS011;8903;52.220;20.978;2023-09-30T04:58:32;13.00;;;10.63;;
17570;SDS011;8903;52.220;20.978;2023-09-30T05:00:59;14.10;;;12.57;;
17570;SDS011;8903;52.220;20.978;2023-09-30T05:03:26;12.47;;;11.10;;
17570;SDS011;8903;52.220;20.978;2023-09-30T05:05:53;17.80;;;11.87;;
17570;SDS011;8903;52.220;20.978;2023-09-30T05:08:25;17.50;;;12.07;;
17570;SDS011;8903;52.220;20.978;2023-09-30T05:10:54;16.90;;;11.20;;
17570;SDS011;8903;52.220;20.978;2023-09-30T05:13:21;13.83;;;11.33;;
17570;SDS011;8903;52.220;20.978;2023-09-30T05:15:48;13.10;;;10.03;;
17570;SDS011;8903;52.220;20.978;2023-09-30T05:18:16;12.10;;;11.00;;
17570;SDS011;8903;52.220;20.978;2023-09-30T05:20:43;14.10;;;10.50;;
17570;SDS011;8903;52.220;20.978;2023-09-30T05:23:10;11.77;;;10.47;;
17570;SDS011;8903;52.220;20.978;2023-09-30T05:25:41;14.20;;;11.17;;
17570;SDS011;8903;52.220;20.978;2023-09-30T05:28:08;18.23;;;12.37;;
17570;SDS011;8903;52.220;20.978;2023-09-30T05:30:36;11.83;;;10.50;;
17570;SDS011;8903;52.220;20.978;2023-09-30T05:33:04;11.70;;;10.30;;
17570;SDS011;8903;52.220;20.978;2023-09-30T05:35:31;17.43;;;12.30;;
17570;SDS011;8903;52.220;20.978;2023-09-30T05:37:58;12.60;;;11.40;;
17570;SDS011;8903;52.220;20.978;2023-09-30T05:40:25;12.60;;;11.30;;
17570;SDS011;8903;52.220;20.978;2023-09-30T05:42:57;12.70;;;11.40;;
17570;SDS011;8903;52.220;20.978;2023-09-30T05:45:26;14.63;;;11.17;;
17570;SDS011;8903;52.220;20.978;2023-09-30T05:47:54;12.20;;;10.83;;
17570;SDS011;8903;52.220;20.978;2023-09-30T05:50:24;13.80;;;10.53;;
17570;SDS011;8903;52.220;20.978;2023-09-30T05:52:51;18.53;;;12.37;;
17570;SDS011;8903;52.220;20.978;2023-09-30T05:55:20;14.30;;;10.83;;
17570;SDS011;8903;52.220;20.978;2023-09-30T05:57:50;15.20;;;12.03;;
17570;SDS011;8903;52.220;20.978;2023-09-30T06:00:22;14.50;;;12.03;;
17570;SDS011;8903;52.220;20.978;2023-09-30T06:02:53;12.40;;;11.10;;
17570;SDS011;8903;52.220;20.978;2023-09-30T06:05:20;14.53;;;11.63;;
17570;SDS011;8903;52.220;20.978;2023-09-30T06:07:48;16.50;;;9.80;;
17570;SDS011;8903;52.220;20.978;2023-09-30T06:10:15;11.20;;;10.00;;
17570;SDS011;8903;52.220;20.978;2023-09-30T06:12:44;14.77;;;10.23;;
17570;SDS011;8903;52.220;20.978;2023-09-30T06:15:11;10.83;;;9.73;;
17570;SDS011;8903;52.220;20.978;2023-09-30T06:17:41;13.00;;;10.27;;
17570;SDS011;8903;52.220;20.978;2023-09-30T06:20:08;11.07;;;9.93;;
17570;SDS011;8903;52.220;20.978;2023-09-30T06:22:41;11.60;;;9.40;;
17570;SDS011;8903;52.220;20.978;2023-09-30T06:25:10;11.43;;;10.30;;
17570;SDS011;8903;52.220;20.978;2023-09-30T06:27:41;11.80;;;9.70;;
17570;SDS011;8903;52.220;20.978;2023-09-30T06:30:08;17.93;;;11.67;;
17570;SDS011;8903;52.220;20.978;2023-09-30T06:32:36;14.73;;;11.80;;
17570;SDS011;8903;52.220;20.978;2023-09-30T06:35:04;16.67;;;12.90;;
17570;SDS011;8903;52.220;20.978;2023-09-30T06:37:35;12.90;;;11.50;;
17570;SDS011;8903;52.220;20.978;2023-09-30T06:40:02;15.20;;;12.27;;
17570;SDS011;8903;52.220;20.978;2023-09-30T06:42:32;16.87;;;12.03;;
17570;SDS011;8903;52.220;20.978;2023-09-30T06:45:00;17.70;;;13.90;;
17570;SDS011;8903;52.220;20.978;2023-09-30T06:47:30;15.70;;;13.37;;
17570;SDS011;8903;52.220;20.978;2023-09-30T06:49:58;16.80;;;15.07;;
17570;SDS011;8903;52.220;20.978;2023-09-30T06:52:31;19.03;;;14.57;;
17570;SDS011;8903;52.220;20.978;2023-09-30T06:54:58;18.60;;;14.13;;
17570;SDS011;8903;52.220;20.978;2023-09-30T06:57:25;20.20;;;14.17;;
17570;SDS011;8903;52.220;20.978;2023-09-30T06:59:52;15.87;;;14.37;;
17570;SDS011;8903;52.220;20.978;2023-09-30T07:02:20;16.40;;;14.07;;
17570;SDS011;8903;52.220;20.978;2023-09-30T07:04:47;17.10;;;15.17;;
17570;SDS011;8903;52.220;20.978;2023-09-30T07:07:14;17.53;;;15.73;;
17570;SDS011;8903;52.220;20.978;2023-09-30T07:09:43;16.10;;;14.50;;
17570;SDS011;8903;52.220;20.978;2023-09-30T07:12:10;17.57;;;14.77;;
17570;SDS011;8903;52.220;20.978;2023-09-30T07:14:37;16.80;;;15.00;;
17570;SDS011;8903;52.220;20.978;2023-09-30T07:17:06;16.83;;;15.17;;
17570;SDS011;8903;52.220;20.978;2023-09-30T07:19:34;16.43;;;14.83;;
17570;SDS011;8903;52.220;20.978;2023-09-30T07:22:03;18.60;;;16.10;;
17570;SDS011;8903;52.220;20.978;2023-09-30T07:24:30;16.50;;;14.47;;
17570;SDS011;8903;52.220;20.978;2023-09-30T07:26:59;15.90;;;14.20;;
17570;SDS011;8903;52.220;20.978;2023-09-30T07:29:26;17.00;;;15.07;;
17570;SDS011;8903;52.220;20.978;2023-09-30T07:31:59;17.33;;;15.70;;
17570;SDS011;8903;52.220;20.978;2023-09-30T07:34:26;23.33;;;17.00;;
17570;SDS011;8903;52.220;20.978;2023-09-30T07:36:53;22.50;;;16.73;;
17570;SDS011;8903;52.220;20.978;2023-09-30T07:39:23;21.07;;;17.23;;
17570;SDS011;8903;52.220;20.978;2023-09-30T07:41:50;25.33;;;19.60;;
17570;SDS011;8903;52.220;20.978;2023-09-30T07:44:18;20.83;;;18.70;;
17570;SDS011;8903;52.220;20.978;2023-09-30T07:46:46;23.83;;;20.57;;
17570;SDS011;8903;52.220;20.978;2023-09-30T07:49:13;20.93;;;18.83;;
17570;SDS011;8903;52.220;20.978;2023-09-30T07:51:40;25.47;;;19.93;;
17570;SDS011;8903;52.220;20.978;2023-09-30T07:54:07;22.70;;;19.17;;
17570;SDS011;8903;52.220;20.978;2023-09-30T07:56:34;23.43;;;20.77;;
17570;SDS011;8903;52.220;20.978;2023-09-30T07:59:01;24.90;;;21.60;;
17570;SDS011;8903;52.220;20.978;2023-09-30T08:01:29;24.20;;;21.60;;
17570;SDS011;8903;52.220;20.978;2023-09-30T08:03:56;24.83;;;21.77;;
17570;SDS011;8903;52.220;20.978;2023-09-30T08:06:23;23.20;;;18.80;;
17570;SDS011;8903;52.220;20.978;2023-09-30T08:08:50;25.90;;;21.60;;
17570;SDS011;8903;52.220;20.978;2023-09-30T08:11:17;26.67;;;22.43;;
17570;SDS011;8903;52.220;20.978;2023-09-30T08:13:45;24.80;;;22.10;;
17570;SDS011;8903;52.220;20.978;2023-09-30T08:16:13;25.77;;;21.83;;
17570;SDS011;8903;52.220;20.978;2023-09-30T08:18:41;25.77;;;22.40;;
17570;SDS011;8903;52.220;20.978;2023-09-30T08:21:08;24.63;;;21.17;;
17570;SDS011;8903;52.220;20.978;2023-09-30T08:23:37;26.23;;;21.47;;
17570;SDS011;8903;52.220;20.978;2023-09-30T08:26:04;25.60;;;20.90;;
17570;SDS011;8903;52.220;20.978;2023-09-30T08:28:31;23.07;;;20.73;;
17570;SDS011;8903;52.220;20.978;2023-09-30T08:31:03;23.50;;;20.47;;
17570;SDS011;8903;52.220;20.978;2023-09-30T08:33:31;23.07;;;20.63;;
17570;SDS011;8903;52.220;20.978;2023-09-30T08:36:02;23.30;;;20.70;;
17570;SDS011;8903;52.220;20.978;2023-09-30T08:38:32;25.77;;;19.80;;
17570;SDS011;8903;52.220;20.978;2023-09-30T08:41:00;21.97;;;19.77;;
17570;SDS011;8903;52.220;20.978;2023-09-30T08:43:28;23.03;;;20.67;;
17570;SDS011;8903;52.220;20.978;2023-09-30T08:45:57;25.03;;;20.53;;
17570;SDS011;8903;52.220;20.978;2023-09-30T08:48:25;24.33;;;19.10;;
17570;SDS011;8903;52.220;20.978;2023-09-30T08:50:53;22.10;;;19.80;;
17570;SDS011;8903;52.220;20.978;2023-09-30T08:53:22;22.40;;;20.27;;
17570;SDS011;8903;52.220;20.978;2023-09-30T08:55:51;22.27;;;19.70;;
17570;SDS011;8903;52.220;20.978;2023-09-30T08:58:20;24.73;;;19.60;;
17570;SDS011;8903;52.220;20.978;2023-09-30T09:00:50;22.90;;;20.10;;
17570;SDS011;8903;52.220;20.978;2023-09-30T09:03:18;24.47;;;21.63;;
17570;SDS011;8903;52.220;20.978;2023-09-30T09:05:45;25.00;;;21.43;;
17570;SDS011;8903;52.220;20.978;2023-09-30T09:08:12;23.10;;;20.63;;
17570;SDS011;8903;52.220;20.978;2023-09-30T09:10:53;23.50;;;21.10;;
17570;SDS011;8903;52.220;20.978;2023-09-30T09:13:22;24.80;;;21.33;;
17570;SDS011;8903;52.220;20.978;2023-09-30T09:15:50;28.63;;;23.17;;
17570;SDS011;8903;52.220;20.978;2023-09-30T09:18:31;25.20;;;20.53;;
17570;SDS011;8903;52.220;20.978;2023-09-30T09:21:09;24.97;;;22.37;;
17570;SDS011;8903;52.220;20.978;2023-09-30T09:23:40;27.17;;;22.53;;
17570;SDS011;8903;52.220;20.978;2023-09-30T09:26:10;30.93;;;22.93;;
17570;SDS011;8903;52.220;20.978;2023-09-30T09:28:39;25.77;;;23.00;;
17570;SDS011;8903;52.220;20.978;2023-09-30T09:31:20;26.53;;;22.80;;
17570;SDS011;8903;52.220;20.978;2023-09-30T09:33:49;26.43;;;23.60;;
17570;SDS011;8903;52.220;20.978;2023-09-30T09:36:17;24.90;;;22.33;;
17570;SDS011;8903;52.220;20.978;2023-09-30T09:38:44;24.97;;;22.27;;
17570;SDS011;8903;52.220;20.978;2023-09-30T09:41:14;27.93;;;24.27;;
17570;SDS011;8903;52.220;20.978;2023-09-30T09:43:42;30.27;;;25.20;;
17570;SDS011;8903;52.220;20.978;2023-09-30T09:46:09;26.43;;;23.50;;
17570;SDS011;8903;52.220;20.978;2023-09-30T09:48:39;32.87;;;23.87;;
17570;SDS011;8903;52.220;20.978;2023-09-30T09:51:06;30.43;;;24.53;;
17570;SDS011;8903;52.220;20.978;2023-09-30T09:53:38;30.20;;;26.90;;
17570;SDS011;8903;52.220;20.978;2023-09-30T09:56:07;33.10;;;28.20;;
17570;SDS011;8903;52.220;20.978;2023-09-30T09:58:39;35.23;;;28.10;;
17570;SDS011;8903;52.220;20.978;2023-09-30T10:01:08;41.33;;;32.67;;
17570;SDS011;8903;52.220;20.978;2023-09-30T10:03:37;38.73;;;34.00;;
17570;SDS011;8903;52.220;20.978;2023-09-30T10:06:04;41.37;;;33.43;;
17570;SDS011;8903;52.220;20.978;2023-09-30T10:08:36;47.33;;;35.33;;
17570;SDS011;8903;52.220;20.978;2023-09-30T10:11:05;47.83;;;34.37;;
17570;SDS011;8903;52.220;20.978;2023-09-30T10:13:53;54.30;;;35.67;;
17570;SDS011;8903;52.220;20.978;2023-09-30T10:19:14;55.70;;;37.00;;
17570;SDS011;8903;52.220;20.978;2023-09-30T10:24:50;43.70;;;30.20;;
17570;SDS011;8903;52.220;20.978;2023-09-30T10:27:30;38.00;;;28.50;;
17570;SDS011;8903;52.220;20.978;2023-09-30T10:30:10;37.13;;;26.63;;
17570;SDS011;8903;52.220;20.978;2023-09-30T10:35:43;31.13;;;19.20;;
17570;SDS011;8903;52.220;20.978;2023-09-30T10:41:06;28.83;;;18.10;;
17570;SDS011;8903;52.220;20.978;2023-09-30T10:43:34;20.37;;;14.83;;
17570;SDS011;8903;52.220;20.978;2023-09-30T10:46:03;21.67;;;14.70;;
17570;SDS011;8903;52.220;20.978;2023-09-30T10:48:35;18.23;;;12.67;;
17570;SDS011;8903;52.220;20.978;2023-09-30T10:51:13;13.17;;;11.57;;
17570;SDS011;8903;52.220;20.978;2023-09-30T10:53:41;12.10;;;9.50;;
17570;SDS011;8903;52.220;20.978;2023-09-30T10:56:13;19.03;;;11.13;;
17570;SDS011;8903;52.220;20.978;2023-09-30T10:58:41;10.17;;;8.00;;
17570;SDS011;8903;52.220;20.978;2023-09-30T11:01:10;13.00;;;9.00;;
17570;SDS011;8903;52.220;20.978;2023-09-30T11:03:39;9.23;;;8.03;;
17570;SDS011;8903;52.220;20.978;2023-09-30T11:06:06;13.87;;;9.13;;
17570;SDS011;8903;52.220;20.978;2023-09-30T11:08:34;11.30;;;8.70;;
17570;SDS011;8903;52.220;20.978;2023-09-30T11:11:03;11.20;;;7.90;;
17570;SDS011;8903;52.220;20.978;2023-09-30T11:13:33;10.87;;;7.63;;
17570;SDS011;8903;52.220;20.978;2023-09-30T11:16:01;9.30;;;7.00;;
17570;SDS011;8903;52.220;20.978;2023-09-30T11:18:32;8.50;;;7.70;;
17570;SDS011;8903;52.220;20.978;2023-09-30T11:21:06;9.63;;;7.23;;
17570;SDS011;8903;52.220;20.978;2023-09-30T11:23:37;7.80;;;7.00;;
17570;SDS011;8903;52.220;20.978;2023-09-30T11:26:04;8.40;;;6.43;;
17570;SDS011;8903;52.220;20.978;2023-09-30T11:28:35;14.23;;;6.63;;
17570;SDS011;8903;52.220;20.978;2023-09-30T11:31:06;10.60;;;6.50;;
17570;SDS011;8903;52.220;20.978;2023-09-30T11:36:22;13.67;;;6.63;;
17570;SDS011;8903;52.220;20.978;2023-09-30T11:38:50;10.63;;;6.07;;
17570;SDS011;8903;52.220;20.978;2023-09-30T11:41:18;14.77;;;7.67;;
17570;SDS011;8903;52.220;20.978;2023-09-30T11:44:00;11.93;;;6.13;;
17570;SDS011;8903;52.220;20.978;2023-09-30T11:46:32;11.37;;;5.87;;
17570;SDS011;8903;52.220;20.978;2023-09-30T11:49:23;7.20;;;5.43;;
17570;SDS011;8903;52.220;20.978;2023-09-30T11:51:51;10.23;;;6.03;;
17570;SDS011;8903;52.220;20.978;2023-09-30T11:54:18;10.67;;;5.80;;
17570;SDS011;8903;52.220;20.978;2023-09-30T11:56:45;8.40;;;5.27;;
17570;SDS011;8903;52.220;20.978;2023-09-30T11:59:12;9.33;;;5.97;;
17570;SDS011;8903;52.220;20.978;2023-09-30T12:01:40;8.13;;;5.13;;
17570;SDS011;8903;52.220;20.978;2023-09-30T12:04:08;9.73;;;5.47;;
17570;SDS011;8903;52.220;20.978;2023-09-30T12:06:40;10.50;;;4.93;;
17570;SDS011;8903;52.220;20.978;2023-09-30T12:09:07;11.30;;;5.90;;
17570;SDS011;8903;52.220;20.978;2023-09-30T12:11:38;7.03;;;5.37;;
17570;SDS011;8903;52.220;20.978;2023-09-30T12:14:09;8.50;;;4.77;;
17570;SDS011;8903;52.220;20.978;2023-09-30T12:16:37;15.73;;;8.67;;
17570;SDS011;8903;52.220;20.978;2023-09-30T12:19:04;8.53;;;5.07;;
17570;SDS011;8903;52.220;20.978;2023-09-30T12:21:32;21.50;;;11.90;;
17570;SDS011;8903;52.220;20.978;2023-09-30T12:24:01;7.30;;;3.90;;
17570;SDS011;8903;52.220;20.978;2023-09-30T12:26:28;10.97;;;6.40;;
17570;SDS011;8903;52.220;20.978;2023-09-30T12:28:58;7.93;;;5.00;;
17570;SDS011;8903;52.220;20.978;2023-09-30T12:31:26;10.00;;;4.07;;
17570;SDS011;8903;52.220;20.978;2023-09-30T12:33:54;5.80;;;3.60;;
17570;SDS011;8903;52.220;20.978;2023-09-30T12:36:21;6.50;;;3.93;;
17570;SDS011;8903;52.220;20.978;2023-09-30T12:38:49;7.30;;;3.43;;
17570;SDS011;8903;52.220;20.978;2023-09-30T12:41:17;8.53;;;3.63;;
17570;SDS011;8903;52.220;20.978;2023-09-30T12:43:46;10.63;;;4.70;;
17570;SDS011;8903;52.220;20.978;2023-09-30T12:46:13;10.70;;;4.53;;
17570;SDS011;8903;52.220;20.978;2023-09-30T12:48:40;10.93;;;5.30;;
17570;SDS011;8903;52.220;20.978;2023-09-30T12:51:07;15.33;;;4.30;;
17570;SDS011;8903;52.220;20.978;2023-09-30T12:53:35;10.43;;;4.00;;
17570;SDS011;8903;52.220;20.978;2023-09-30T12:56:02;8.63;;;3.70;;
17570;SDS011;8903;52.220;20.978;2023-09-30T12:58:31;6.07;;;3.40;;
17570;SDS011;8903;52.220;20.978;2023-09-30T13:00:58;8.10;;;4.20;;
17570;SDS011;8903;52.220;20.978;2023-09-30T13:03:25;13.87;;;4.67;;
17570;SDS011;8903;52.220;20.978;2023-09-30T13:05:52;13.73;;;4.73;;
17570;SDS011;8903;52.220;20.978;2023-09-30T13:08:20;6.40;;;3.57;;
17570;SDS011;8903;52.220;20.978;2023-09-30T13:10:47;6.23;;;3.50;;
17570;SDS011;8903;52.220;20.978;2023-09-30T13:13:15;5.10;;;3.40;;
17570;SDS011;8903;52.220;20.978;2023-09-30T13:15:44;6.97;;;3.27;;
17570;SDS011;8903;52.220;20.978;2023-09-30T13:18:11;10.27;;;3.80;;
17570;SDS011;8903;52.220;20.978;2023-09-30T13:20:38;7.73;;;3.13;;
17570;SDS011;8903;52.220;20.978;2023-09-30T13:23:05;5.27;;;2.83;;
17570;SDS011;8903;52.220;20.978;2023-09-30T13:25:32;5.77;;;2.73;;
17570;SDS011;8903;52.220;20.978;2023-09-30T13:27:59;5.47;;;3.17;;
17570;SDS011;8903;52.220;20.978;2023-09-30T13:30:27;5.50;;;2.73;;
17570;SDS011;8903;52.220;20.978;2023-09-30T13:32:55;4.57;;;2.23;;
17570;SDS011;8903;52.220;20.978;2023-09-30T13:35:22;5.63;;;2.30;;
17570;SDS011;8903;52.220;20.978;2023-09-30T13:37:50;8.30;;;2.87;;
17570;SDS011;8903;52.220;20.978;2023-09-30T13:40:17;6.13;;;2.57;;
17570;SDS011;8903;52.220;20.978;2023-09-30T13:42:44;6.10;;;1.90;;
17570;SDS011;8903;52.220;20.978;2023-09-30T13:45:12;5.70;;;2.20;;
17570;SDS011;8903;52.220;20.978;2023-09-30T13:47:39;4.80;;;2.20;;
17570;SDS011;8903;52.220;20.978;2023-09-30T13:50:08;5.97;;;2.30;;
17570;SDS011;8903;52.220;20.978;2023-09-30T13:52:35;10.03;;;3.77;;
17570;SDS011;8903;52.220;20.978;2023-09-30T13:55:03;5.87;;;2.27;;
17570;SDS011;8903;52.220;20.978;2023-09-30T13:57:30;8.33;;;2.33;;
17570;SDS011;8903;52.220;20.978;2023-09-30T13:59:57;8.27;;;3.10;;
17570;SDS011;8903;52.220;20.978;2023-09-30T14:02:25;7.50;;;2.20;;
17570;SDS011;8903;52.220;20.978;2023-09-30T14:04:52;4.43;;;2.40;;
17570;SDS011;8903;52.220;20.978;2023-09-30T14:07:21;6.07;;;2.70;;
17570;SDS011;8903;52.220;20.978;2023-09-30T14:09:48;4.40;;;2.03;;
17570;SDS011;8903;52.220;20.978;2023-09-30T14:12:15;8.93;;;2.60;;
17570;SDS011;8903;52.220;20.978;2023-09-30T14:14:42;3.30;;;2.10;;
17570;SDS011;8903;52.220;20.978;2023-09-30T14:17:09;7.50;;;2.50;;
17570;SDS011;8903;52.220;20.978;2023-09-30T14:19:37;6.53;;;2.57;;
17570;SDS011;8903;52.220;20.978;2023-09-30T14:22:05;5.20;;;2.87;;
17570;SDS011;8903;52.220;20.978;2023-09-30T14:24:34;3.90;;;1.90;;
17570;SDS011;8903;52.220;20.978;2023-09-30T14:27:02;8.03;;;2.90;;
17570;SDS011;8903;52.220;20.978;2023-09-30T14:29:29;8.27;;;2.90;;
17570;SDS011;8903;52.220;20.978;2023-09-30T14:31:57;5.53;;;3.13;;
17570;SDS011;8903;52.220;20.978;2023-09-30T14:34:24;8.07;;;2.60;;
17570;SDS011;8903;52.220;20.978;2023-09-30T14:36:51;8.50;;;3.57;;
17570;SDS011;8903;52.220;20.978;2023-09-30T14:39:18;7.50;;;2.87;;
17570;SDS011;8903;52.220;20.978;2023-09-30T14:41:47;9.40;;;4.00;;
17570;SDS011;8903;52.220;20.978;2023-09-30T14:44:14;5.27;;;2.37;;
17570;SDS011;8903;52.220;20.978;2023-09-30T14:46:42;7.50;;;2.50;;
17570;SDS011;8903;52.220;20.978;2023-09-30T14:49:09;4.83;;;2.60;;
17570;SDS011;8903;52.220;20.978;2023-09-30T14:51:36;7.10;;;2.80;;